Aérodrome :
LOGIN :

S'inscrire | Disclaimer

   EN    FR    IT 

 










Légende :    VFR   VFR Marginal   IFR   IFR Intensif   IFR Très Intensif
Visi : 
Plafond : 
>= 8 km
>= 3000ft
5 à 8 km
1000 à 3000 ft
1500m à 5 km
500 à 1000 ft
800 à 1500m
200 à 500 ft
< 800m
< 200 ft
Symboles :   Orages  Brouillard  Fortes neiges  Fortes précipitations  Vent > 20 kt
SIGMETs :   Divers  Orages  Givrage  Turbulence  Onde Orograph.  Cendres Volcan.






- Altitude de l'aérodrome : 755 ft
- Code IATA : KSC


LZKZ - Kosice

DERNIER METAR :
  • 301030Z 36022KT 9999 FEW035 SCT045 BKN060 01/M10 Q1019 NOSIG

METARs EXPIRÉS :
  • 301000Z 01021KT 9999 FEW030 BKN060 01/M08 Q1018 NOSIG
  • 300930Z 01019KT 9999 FEW020 SCT032 BKN050 00/M06 Q1018 NOSIG
  • 300900Z 02016KT 9999 -SN SCT020 BKN030 M00/M03 Q1018 NOSIG
  • 300830Z 02020KT 4000 1800S -SN FEW015 SCT020 OVC030 M01/M03 Q1018 TEMPO 1400 SN
  • 300816Z 02019KT 1400 R01/1900N -SN FEW014 SCT018 OVC025 M01/M02 Q1018
  • 300808Z 01021KT 2000 -SN FEW017 SCT021 OVC030 M00/M03 Q1018

TAF AMD TAF LZKZ
Valide du 30 à 07h jusqu'au 31 à 06h UTC


300708Z 3007/3106 01020KT 9999 FEW025 BKN050
TEMPO 3007/3012 1500 SHSN SCT015 OVC035
TEMPO 3007/3017 02025G35KT
PROB40
TEMPO 3008/3014 01030G40KT
BECMG 3020/3022 03007KT
BECMG 3104/3106 VRB02KT



MET'MAP, la Météo Aéronautique d'un coup d'oeil ! - Copyright ORBIFLY Décembre 2007 - Disclaimer

ORBIFLY MET'MAP TEAM :

Programmation & Développement : Alexandra Zaïnal
Sur une idée originale de : Baudouin d'Aumeries
Assistance à la programmation : Marc-Olivier Méhu
Soutien technique & logistique : Manuel Goepfert

Contact : metmap@orbifly.com




SOURCES & CREDITS :

   NOAA